NATURA VA

 METAR AND TAF INFORMATION
METAR FOR LEDA
ADDS - METARS form results

(1612 UTC 26 March 2019)
Data provider http://aviationweather.gov/metar/data/
 
METAR text: LEDA 261600Z 25007KT 200V290 CAVOK 19/M03 Q1019
Conditions at: LEDA (LLEIDA-ALGUAIRE , ES) observed 1600 UTC 26 March 2019
Temperature: 19.0°C (66°F)
Dewpoint: -3.0°C (27°F) [RH = 22%]
Pressure (altimeter): 30.09 inches Hg (1019.0 mb)
Winds: from the WSW (250 degrees) at 8 MPH (7 knots; 3.6 m/s)
Visibility: 6 or more miles (10+ km)
Ceiling: ceiling and visibility are OK
Clouds: unknown
Weather: no significant weather observed at this time

METAR text: LEDA 261530Z 24007KT 190V280 CAVOK 18/M03 Q1019
Conditions at: LEDA (LLEIDA-ALGUAIRE , ES) observed 1530 UTC 26 March 2019
Temperature: 18.0°C (64°F)
Dewpoint: -3.0°C (27°F) [RH = 24%]
Pressure (altimeter): 30.09 inches Hg (1019.0 mb)
Winds: from the WSW (240 degrees) at 8 MPH (7 knots; 3.6 m/s)
Visibility: 6 or more miles (10+ km)
Ceiling: ceiling and visibility are OK
Clouds: unknown
Weather: no significant weather observed at this time

 AIRPORT MAP

 RUNWAY INFORMATION

 AIRPORT FREQUENCIES

 AIRPORT NEAR NAVIGATION AIDS



Powered by Virtual Airlines Manager [v2.6.2]